createdAt,value
2022-10-06T00:00:08.761Z,101103.78
2022-10-06T00:03:12.396Z,101103.06
2022-10-06T00:06:17.168Z,101108.66
2022-10-06T00:09:19.920Z,101106.00
2022-10-06T00:12:22.499Z,101112.56
2022-10-06T00:15:30.741Z,101108.22
2022-10-06T00:18:33.372Z,101106.09
2022-10-06T00:21:36.191Z,101108.91
2022-10-06T00:24:38.646Z,101106.25
2022-10-06T00:27:43.352Z,101111.44
2022-10-06T00:30:46.949Z,101117.25
2022-10-06T00:33:50.265Z,101111.09
2022-10-06T00:36:52.807Z,101109.28
2022-10-06T00:39:55.849Z,101115.97
2022-10-06T00:43:03.805Z,101109.22
2022-10-06T00:46:22.550Z,101103.91
2022-10-06T00:49:31.214Z,101106.84
2022-10-06T00:52:34.088Z,101108.78
2022-10-06T00:55:37.046Z,101112.56
2022-10-06T00:58:39.877Z,101105.69
2022-10-06T01:01:46.859Z,101105.78
2022-10-06T01:04:55.905Z,101106.00
2022-10-06T01:07:58.654Z,101109.50
2022-10-06T01:11:03.066Z,101107.97
2022-10-06T01:14:05.627Z,101116.19
2022-10-06T01:17:15.634Z,101112.13
2022-10-06T01:20:19.541Z,101104.94
2022-10-06T01:23:23.067Z,101111.81
2022-10-06T01:26:27.409Z,101125.63
2022-10-06T01:29:32.747Z,101114.41
2022-10-06T01:32:37.864Z,101113.09
2022-10-06T01:35:40.730Z,101115.28
2022-10-06T01:38:43.389Z,101115.94
2022-10-06T01:41:47.917Z,101117.28
2022-10-06T01:44:50.950Z,101112.81
2022-10-06T01:47:53.801Z,101122.84
2022-10-06T01:50:57.311Z,101128.03
2022-10-06T01:54:00.094Z,101124.81
2022-10-06T01:57:02.605Z,101132.06
2022-10-06T02:00:05.929Z,101128.94
2022-10-06T02:03:15.105Z,101129.91
2022-10-06T02:06:18.058Z,101131.13
2022-10-06T02:09:20.818Z,101134.63
2022-10-06T02:12:24.120Z,101128.81
2022-10-06T02:15:27.300Z,101130.31
2022-10-06T02:18:30.545Z,101136.59
2022-10-06T02:21:33.776Z,101127.66
2022-10-06T02:24:37.455Z,101136.97
2022-10-06T02:27:40.455Z,101139.50
2022-10-06T02:30:43.409Z,101136.97
2022-10-06T02:33:46.496Z,101133.97
2022-10-06T02:36:50.666Z,101138.31
2022-10-06T02:39:53.789Z,101136.13
2022-10-06T02:42:56.340Z,101134.31
2022-10-06T02:46:01.829Z,101140.72
2022-10-06T02:49:04.552Z,101141.09
2022-10-06T02:52:08.709Z,101137.25
2022-10-06T02:55:11.536Z,101135.69
2022-10-06T02:58:14.420Z,101136.78
2022-10-06T03:01:19.924Z,101141.34
2022-10-06T03:04:23.029Z,101137.50
2022-10-06T03:07:25.899Z,101146.56
2022-10-06T03:10:29.259Z,101139.53
2022-10-06T03:13:31.919Z,101142.44
2022-10-06T03:16:38.747Z,101135.81
2022-10-06T03:19:41.519Z,101134.47
2022-10-06T03:22:44.474Z,101131.09
2022-10-06T03:25:55.982Z,101132.44
2022-10-06T03:29:00.256Z,101145.22
2022-10-06T03:32:04.359Z,101143.66
2022-10-06T03:35:08.420Z,101144.00
2022-10-06T03:38:11.169Z,101130.97
2022-10-06T03:41:22.777Z,101128.81
2022-10-06T03:44:25.316Z,101139.56
2022-10-06T03:47:30.757Z,101135.41
2022-10-06T03:50:33.718Z,101126.00
2022-10-06T03:53:38.147Z,101130.09
2022-10-06T03:56:41.791Z,101135.28
2022-10-06T03:59:45.150Z,101132.53
2022-10-06T04:02:49.754Z,101134.44
2022-10-06T04:05:56.769Z,101130.09
2022-10-06T04:09:00.549Z,101146.03
2022-10-06T04:12:03.685Z,101137.34
2022-10-06T04:15:07.222Z,101143.59
2022-10-06T04:18:11.495Z,101147.22
2022-10-06T04:21:14.086Z,101149.88
2022-10-06T04:24:18.550Z,101154.22
2022-10-06T04:27:28.031Z,101147.81
2022-10-06T04:30:31.384Z,101154.69
2022-10-06T04:33:34.609Z,101148.44
2022-10-06T04:36:40.873Z,101155.78
2022-10-06T04:39:44.214Z,101155.91
2022-10-06T04:42:47.086Z,101158.56
2022-10-06T04:45:59.976Z,101158.66
2022-10-06T04:49:03.739Z,101151.78
2022-10-06T04:52:06.956Z,101145.03
2022-10-06T04:55:11.177Z,101147.34
2022-10-06T04:58:14.023Z,101147.47
2022-10-06T05:01:18.084Z,101157.47
2022-10-06T05:04:21.347Z,101159.03
2022-10-06T05:07:24.269Z,101152.88
2022-10-06T05:10:28.513Z,101153.13
2022-10-06T05:13:32.299Z,101153.97
2022-10-06T05:16:38.218Z,101161.69
2022-10-06T05:19:41.751Z,101163.97
2022-10-06T05:22:44.388Z,101159.50
2022-10-06T05:25:52.622Z,101151.44
2022-10-06T05:28:55.698Z,101145.06
2022-10-06T05:31:59.282Z,101159.03
2022-10-06T05:35:02.805Z,101165.19
2022-10-06T05:38:05.765Z,101166.28
2022-10-06T05:41:11.583Z,101168.25
2022-10-06T05:44:14.677Z,101167.78
2022-10-06T05:47:17.877Z,101174.16
2022-10-06T05:50:21.169Z,101181.75
2022-10-06T05:53:23.779Z,101176.47
2022-10-06T05:56:28.575Z,101177.44
2022-10-06T05:59:31.330Z,101184.69
2022-10-06T06:02:34.521Z,101182.25
2022-10-06T06:05:42.212Z,101183.22
2022-10-06T06:08:45.681Z,101185.87
2022-10-06T06:11:50.450Z,101180.91
2022-10-06T06:15:12.191Z,101186.09
2022-10-06T06:18:16.009Z,101186.69
2022-10-06T06:21:18.871Z,101190.19
2022-10-06T06:24:23.064Z,101196.44
2022-10-06T06:27:26.268Z,101196.66
2022-10-06T06:30:29.473Z,101209.16
2022-10-06T06:33:32.418Z,101209.28
2022-10-06T06:36:36.866Z,101216.87
2022-10-06T06:39:39.820Z,101218.19
2022-10-06T06:42:42.788Z,101224.53
2022-10-06T06:45:46.567Z,101230.94
2022-10-06T06:48:51.238Z,101225.69
2022-10-06T06:51:54.520Z,101227.56
2022-10-06T06:54:57.963Z,101228.28
2022-10-06T06:58:00.940Z,101221.84
2022-10-06T07:01:14.215Z,101237.66
2022-10-06T07:04:17.805Z,101240.03
2022-10-06T07:07:21.605Z,101243.16
2022-10-06T07:10:28.007Z,101230.88
2022-10-06T07:13:30.917Z,101241.25
2022-10-06T07:16:52.724Z,101235.97
2022-10-06T07:20:14.835Z,101235.81
2022-10-06T07:23:37.344Z,101238.03
2022-10-06T07:26:40.455Z,101242.69
2022-10-06T07:29:44.705Z,101247.63
2022-10-06T07:32:49.861Z,101254.22
2022-10-06T07:35:52.861Z,101256.94
2022-10-06T07:38:56.279Z,101258.31
2022-10-06T07:42:07.019Z,101271.34
2022-10-06T07:45:29.013Z,101271.09
2022-10-06T07:48:31.765Z,101267.91
2022-10-06T07:51:34.843Z,101278.47
2022-10-06T07:54:37.565Z,101269.53
2022-10-06T07:57:47.483Z,101270.22
2022-10-06T08:00:52.708Z,101275.47
2022-10-06T08:03:55.645Z,101278.75
2022-10-06T08:06:58.474Z,101282.16
2022-10-06T08:10:01.554Z,101280.91
2022-10-06T08:13:07.725Z,101281.31
2022-10-06T08:16:14.632Z,101280.38
2022-10-06T08:19:19.652Z,101290.91
2022-10-06T08:22:24.758Z,101289.91
2022-10-06T08:25:27.187Z,101289.44
2022-10-06T08:28:31.295Z,101289.41
2022-10-06T08:31:33.970Z,101279.47
2022-10-06T08:34:36.972Z,101276.72
2022-10-06T08:37:39.454Z,101279.06
2022-10-06T08:40:44.069Z,101285.41
2022-10-06T08:43:50.793Z,101270.53
2022-10-06T08:47:01.660Z,101275.25
2022-10-06T08:50:09.763Z,101281.31
2022-10-06T08:53:35.898Z,101279.16
2022-10-06T08:56:52.042Z,101282.66
2022-10-06T08:59:55.012Z,101291.88
2022-10-06T09:02:57.816Z,101288.25
2022-10-06T09:06:08.760Z,101283.69
2022-10-06T09:09:33.249Z,101279.19
2022-10-06T09:12:42.134Z,101281.91
2022-10-06T09:15:49.034Z,101285.84
2022-10-06T09:19:08.140Z,101283.53
2022-10-06T09:22:22.562Z,101279.91
2022-10-06T09:25:28.847Z,101286.62
2022-10-06T09:28:31.447Z,101280.56
2022-10-06T09:31:39.555Z,101285.78
2022-10-06T09:34:55.298Z,101280.06
2022-10-06T09:38:07.276Z,101283.12
2022-10-06T09:41:11.622Z,101281.25
2022-10-06T09:44:24.784Z,101284.41
2022-10-06T09:47:32.121Z,101289.12
2022-10-06T09:50:35.257Z,101277.31
2022-10-06T09:53:39.547Z,101278.78
2022-10-06T09:56:43.260Z,101282.44
2022-10-06T09:59:47.258Z,101283.19
2022-10-06T10:02:57.155Z,101285.69
2022-10-06T10:06:02.284Z,101284.59
2022-10-06T10:09:21.686Z,101287.59
2022-10-06T10:12:29.921Z,101283.00
2022-10-06T10:15:38.351Z,101268.47
2022-10-06T10:18:46.266Z,101278.88
2022-10-06T10:21:49.050Z,101276.00
2022-10-06T10:25:01.555Z,101275.53
2022-10-06T10:28:20.110Z,101277.34
2022-10-06T10:31:51.099Z,101277.81
2022-10-06T10:35:13.372Z,101273.78
2022-10-06T10:38:20.452Z,101271.31
2022-10-06T10:41:26.050Z,101269.75
2022-10-06T10:44:36.015Z,101261.44
2022-10-06T10:47:39.700Z,101263.44
2022-10-06T10:50:42.442Z,101269.22
2022-10-06T10:53:55.034Z,101265.31
2022-10-06T10:56:58.505Z,101266.25
2022-10-06T11:00:04.926Z,101254.19
2022-10-06T11:03:10.123Z,101264.81
2022-10-06T11:06:38.511Z,101267.59
2022-10-06T11:09:50.419Z,101270.94
2022-10-06T11:13:23.915Z,101266.56
2022-10-06T11:16:29.844Z,101268.81
2022-10-06T11:19:44.316Z,101259.81
2022-10-06T11:22:56.471Z,101259.69
2022-10-06T11:26:04.568Z,101258.88
2022-10-06T11:29:31.043Z,101262.78
2022-10-06T11:32:56.052Z,101248.62
2022-10-06T11:35:59.091Z,101247.59
2022-10-06T11:39:15.874Z,101249.53
2022-10-06T11:42:42.309Z,101245.06
2022-10-06T11:46:20.372Z,101244.78
2022-10-06T11:49:29.296Z,101246.94
2022-10-06T11:52:31.765Z,101245.44
2022-10-06T11:55:34.823Z,101234.84
2022-10-06T11:58:55.682Z,101226.56
2022-10-06T12:01:59.233Z,101230.28
2022-10-06T12:05:54.032Z,101232.97
2022-10-06T12:08:42.052Z,101241.25
2022-10-06T12:11:45.440Z,101236.16
2022-10-06T12:17:05.134Z,101244.63
2022-10-06T12:18:38.514Z,101236.94
2022-10-06T12:21:50.095Z,101233.63
2022-10-06T12:25:11.428Z,101236.72
2022-10-06T12:28:35.440Z,101233.44
2022-10-06T12:31:47.675Z,101238.47
2022-10-06T12:35:18.788Z,101238.66
2022-10-06T12:38:43.090Z,101230.81
2022-10-06T12:42:02.502Z,101230.09
2022-10-06T12:45:15.509Z,101228.91
2022-10-06T12:48:22.937Z,101225.81
2022-10-06T12:51:35.867Z,101228.78
2022-10-06T12:54:55.982Z,101216.13
2022-10-06T12:57:59.181Z,101209.97
2022-10-06T13:01:04.647Z,101216.47
2022-10-06T13:04:34.641Z,101209.69
2022-10-06T13:07:56.560Z,101208.59
2022-10-06T13:11:22.299Z,101207.34
2022-10-06T13:14:24.878Z,101208.47
2022-10-06T13:17:27.672Z,101206.84
2022-10-06T13:20:33.121Z,101206.84
2022-10-06T13:23:38.029Z,101199.66
2022-10-06T13:26:41.074Z,101200.09
2022-10-06T13:29:43.852Z,101195.44
2022-10-06T13:32:46.463Z,101188.88
2022-10-06T13:35:52.925Z,101187.06
2022-10-06T13:38:55.750Z,101193.09
2022-10-06T13:42:03.565Z,101184.41
2022-10-06T13:45:14.177Z,101190.00
2022-10-06T13:48:19.111Z,101186.84
2022-10-06T13:51:24.293Z,101185.53
2022-10-06T13:54:39.884Z,101185.81
2022-10-06T13:57:47.882Z,101188.91
2022-10-06T14:00:57.724Z,101186.13
2022-10-06T14:04:14.760Z,101178.28
2022-10-06T14:07:21.989Z,101186.84
2022-10-06T14:10:31.806Z,101183.31
2022-10-06T14:13:55.488Z,101180.09
2022-10-06T14:16:58.389Z,101192.84
2022-10-06T14:20:01.382Z,101186.13
2022-10-06T14:23:42.036Z,101191.28
2022-10-06T14:26:45.842Z,101189.28
2022-10-06T14:29:48.653Z,101195.16
2022-10-06T14:32:51.142Z,101199.81
2022-10-06T14:35:53.962Z,101202.25
2022-10-06T14:38:59.052Z,101200.94
2022-10-06T14:42:01.903Z,101203.75
2022-10-06T14:45:04.727Z,101201.97
2022-10-06T14:48:07.572Z,101211.47
2022-10-06T14:51:10.977Z,101206.56
2022-10-06T14:54:13.882Z,101208.97
2022-10-06T14:57:16.392Z,101214.47
2022-10-06T15:00:20.841Z,101217.41
2022-10-06T15:03:23.432Z,101213.41
2022-10-06T15:06:45.051Z,101213.13
2022-10-06T15:09:47.503Z,101218.44
2022-10-06T15:12:52.211Z,101219.97
2022-10-06T15:15:58.783Z,101221.69
2022-10-06T15:19:04.593Z,101217.03
2022-10-06T15:22:08.975Z,101220.19
2022-10-06T15:25:34.527Z,101220.25
2022-10-06T15:28:55.783Z,101236.47
2022-10-06T15:32:00.230Z,101226.13
2022-10-06T15:35:02.939Z,101224.88
2022-10-06T15:38:05.699Z,101230.13
2022-10-06T15:41:08.349Z,101228.12
2022-10-06T15:44:12.022Z,101234.88
2022-10-06T15:47:14.553Z,101234.13
2022-10-06T15:50:18.922Z,101248.25
2022-10-06T15:53:22.548Z,101245.25
2022-10-06T15:56:28.304Z,101241.59
2022-10-06T15:59:33.857Z,101244.94
2022-10-06T16:02:36.908Z,101248.50
2022-10-06T16:05:50.781Z,101251.56
2022-10-06T16:08:53.239Z,101252.97
2022-10-06T16:11:58.142Z,101266.28
2022-10-06T16:15:00.623Z,101275.66
2022-10-06T16:18:03.465Z,101267.97
2022-10-06T16:21:06.524Z,101272.19
2022-10-06T16:24:10.075Z,101276.25
2022-10-06T16:27:14.305Z,101280.25
2022-10-06T16:30:17.127Z,101286.94
2022-10-06T16:33:19.594Z,101277.37
2022-10-06T16:36:22.463Z,101286.47
2022-10-06T16:39:25.003Z,101294.72
2022-10-06T16:42:27.864Z,101284.47
2022-10-06T16:45:30.348Z,101289.47
2022-10-06T16:48:35.865Z,101292.00
2022-10-06T16:51:40.235Z,101303.41
2022-10-06T16:54:43.001Z,101301.87
2022-10-06T16:57:45.481Z,101301.72
2022-10-06T17:00:58.948Z,101309.41
2022-10-06T17:04:07.124Z,101302.16
2022-10-06T17:07:09.926Z,101311.37
2022-10-06T17:10:21.157Z,101310.88
2022-10-06T17:13:24.319Z,101325.28
2022-10-06T17:16:30.068Z,101312.19
2022-10-06T17:19:34.347Z,101317.56
2022-10-06T17:22:37.200Z,101327.94
2022-10-06T17:25:42.076Z,101316.13
2022-10-06T17:28:58.432Z,101327.19
2022-10-06T17:32:01.707Z,101327.00
2022-10-06T17:35:04.994Z,101322.63
2022-10-06T17:38:09.750Z,101325.13
2022-10-06T17:41:12.420Z,101324.75
2022-10-06T17:44:21.307Z,101323.00
2022-10-06T17:47:23.892Z,101327.69
2022-10-06T17:50:27.506Z,101322.81
2022-10-06T17:53:30.097Z,101321.97
2022-10-06T17:56:34.914Z,101324.97
2022-10-06T17:59:38.189Z,101327.28
2022-10-06T18:02:41.671Z,101322.09
2022-10-06T18:05:53.234Z,101329.63
2022-10-06T18:09:01.324Z,101325.50
2022-10-06T18:12:04.864Z,101322.44
2022-10-06T18:15:09.386Z,101323.44
2022-10-06T18:18:12.237Z,101316.19
2022-10-06T18:21:15.093Z,101318.34
2022-10-06T18:24:21.031Z,101321.66
2022-10-06T18:27:24.201Z,101320.59
2022-10-06T18:30:29.426Z,101324.28
2022-10-06T18:36:54.989Z,101331.91
2022-10-06T18:39:57.527Z,101326.16
2022-10-06T18:43:00.703Z,101334.34
2022-10-06T18:46:23.681Z,101323.88
2022-10-06T18:49:26.558Z,101324.72
2022-10-06T18:52:29.073Z,101333.22
2022-10-06T18:55:32.373Z,101344.06
2022-10-06T18:58:41.901Z,101340.03
2022-10-06T19:01:47.514Z,101358.09
2022-10-06T19:04:50.031Z,101346.69
2022-10-06T19:07:54.028Z,101344.88
2022-10-06T19:11:20.696Z,101346.88
2022-10-06T19:14:29.563Z,101349.03
2022-10-06T19:17:32.269Z,101349.47
2022-10-06T19:20:35.188Z,101352.75
2022-10-06T19:23:38.560Z,101353.53
2022-10-06T19:26:45.769Z,101341.28
2022-10-06T19:29:54.386Z,101344.81
2022-10-06T19:32:57.357Z,101339.94
2022-10-06T19:36:00.504Z,101343.50
2022-10-06T19:39:09.414Z,101340.38
2022-10-06T19:42:32.649Z,101354.22
2022-10-06T19:45:35.545Z,101356.19
2022-10-06T19:48:38.255Z,101363.22
2022-10-06T19:51:43.792Z,101367.19
2022-10-06T19:54:46.308Z,101365.81
2022-10-06T19:57:50.744Z,101371.16
2022-10-06T20:00:53.216Z,101366.78
2022-10-06T20:03:56.067Z,101367.50
2022-10-06T20:07:03.667Z,101375.38
2022-10-06T20:10:06.642Z,101373.41
2022-10-06T20:13:09.890Z,101382.41
2022-10-06T20:16:17.310Z,101380.88
2022-10-06T20:19:20.560Z,101375.53
2022-10-06T20:22:23.749Z,101379.06
2022-10-06T20:25:26.494Z,101382.03
2022-10-06T20:28:29.324Z,101384.69
2022-10-06T20:31:34.653Z,101391.47
2022-10-06T20:34:37.592Z,101397.94
2022-10-06T20:37:42.034Z,101388.50
2022-10-06T20:40:49.220Z,101391.47
2022-10-06T20:43:53.950Z,101391.50
2022-10-06T20:46:56.733Z,101396.13
2022-10-06T20:49:59.195Z,101403.59
2022-10-06T20:53:02.108Z,101402.06
2022-10-06T20:56:05.721Z,101402.47
2022-10-06T20:59:11.277Z,101401.91
2022-10-06T21:02:13.843Z,101396.16
2022-10-06T21:05:16.784Z,101394.47
2022-10-06T21:08:19.271Z,101399.25
2022-10-06T21:11:23.651Z,101404.62
2022-10-06T21:14:26.216Z,101394.75
2022-10-06T21:17:29.007Z,101398.00
2022-10-06T21:20:31.497Z,101395.78
2022-10-06T21:23:40.117Z,101397.88
2022-10-06T21:26:42.704Z,101398.31
2022-10-06T21:29:45.667Z,101405.88
2022-10-06T21:32:48.411Z,101403.34
2022-10-06T21:36:01.482Z,101404.78
2022-10-06T21:39:05.730Z,101401.53
2022-10-06T21:42:08.797Z,101399.44
2022-10-06T21:45:11.338Z,101398.88
2022-10-06T21:48:14.594Z,101394.66
2022-10-06T21:51:17.298Z,101401.28
2022-10-06T21:54:21.751Z,101397.75
2022-10-06T21:57:24.249Z,101396.47
2022-10-06T22:00:27.011Z,101399.28
2022-10-06T22:03:29.762Z,101389.44
2022-10-06T22:06:33.885Z,101394.78
2022-10-06T22:09:36.607Z,101395.47
2022-10-06T22:12:39.070Z,101395.75
2022-10-06T22:15:41.778Z,101399.97
2022-10-06T22:18:45.027Z,101404.47
2022-10-06T22:21:48.502Z,101398.44
2022-10-06T22:24:51.044Z,101403.06
2022-10-06T22:27:53.745Z,101393.78
2022-10-06T22:31:07.778Z,101397.44
2022-10-06T22:34:12.127Z,101399.97
2022-10-06T22:37:14.584Z,101399.25
2022-10-06T22:40:17.620Z,101400.53
2022-10-06T22:43:20.093Z,101400.81
2022-10-06T22:46:27.196Z,101396.72
2022-10-06T22:49:29.915Z,101397.22
2022-10-06T22:52:32.752Z,101392.00
2022-10-06T22:55:35.305Z,101382.47
2022-10-06T22:58:39.007Z,101384.69
2022-10-06T23:01:41.459Z,101383.00
2022-10-06T23:04:44.280Z,101381.31
2022-10-06T23:07:47.161Z,101382.44
2022-10-06T23:10:51.015Z,101383.84
2022-10-06T23:13:53.655Z,101379.47
2022-10-06T23:16:56.518Z,101376.25
2022-10-06T23:19:59.011Z,101379.31
2022-10-06T23:23:01.907Z,101376.66
2022-10-06T23:26:07.217Z,101376.88
2022-10-06T23:29:10.768Z,101378.16
2022-10-06T23:32:13.474Z,101375.87
2022-10-06T23:35:16.243Z,101377.84
2022-10-06T23:38:18.899Z,101372.22
2022-10-06T23:41:21.954Z,101372.22
2022-10-06T23:44:27.340Z,101375.28
2022-10-06T23:47:30.108Z,101388.63
2022-10-06T23:50:33.209Z,101383.69
2022-10-06T23:53:39.494Z,101385.66
2022-10-06T23:56:41.961Z,101383.50
2022-10-06T23:59:44.762Z,101383.63
